Time;durP1;ratioP1;P1;durP2;ratioP2;P2;SDS_P1;SDS_P2;PMS_P1;PMS_P2;Temp;Humidity;BMP_temperature;BMP_pressure;BME280_temperature;BME280_humidity;BME280_pressure;Samples;Min_cycle;Max_cycle;Signal;HPM_P1;HPM_P2
2022/06/26 00:01:20;;;;;;;5.78;2.42;;;17.60;99.90;;;;;;5062706;28;20020;-74
2022/06/26 00:03:45;;;;;;;2.45;2.22;;;17.60;99.90;;;;;;5053243;28;20107;-74
2022/06/26 00:06:11;;;;;;;2.97;1.80;;;17.80;99.90;;;;;;5051685;28;20021;-74
2022/06/26 00:08:36;;;;;;;2.50;2.30;;;18.00;99.90;;;;;;5069499;28;20025;-74
2022/06/26 00:11:02;;;;;;;3.50;2.40;;;18.10;99.90;;;;;;5041854;28;20159;-75
2022/06/26 00:13:28;;;;;;;3.58;2.28;;;17.90;99.90;;;;;;5037756;28;20049;-75
2022/06/26 00:15:53;;;;;;;3.05;2.22;;;17.80;99.90;;;;;;5071503;28;20063;-74
2022/06/26 00:18:19;;;;;;;4.07;2.88;;;17.80;99.90;;;;;;5071219;28;20025;-74
2022/06/26 00:20:44;;;;;;;2.85;2.60;;;17.60;99.90;;;;;;5070726;28;20032;-73
2022/06/26 00:23:10;;;;;;;2.97;2.67;;;17.90;99.90;;;;;;5053368;28;20028;-74
2022/06/26 00:25:36;;;;;;;2.65;2.45;;;17.80;99.90;;;;;;5071374;28;20498;-74
2022/06/26 00:28:02;;;;;;;4.30;2.95;;;17.80;99.90;;;;;;5035536;28;20025;-74
2022/06/26 00:30:28;;;;;;;3.20;2.90;;;17.80;99.90;;;;;;5032752;28;20025;-74
2022/06/26 00:32:54;;;;;;;3.22;2.70;;;17.60;99.90;;;;;;5055095;28;20037;-74
2022/06/26 00:35:19;;;;;;;2.85;2.65;;;17.50;99.90;;;;;;5071406;28;20016;-74
2022/06/26 00:37:45;;;;;;;2.88;2.47;;;17.20;99.90;;;;;;5071111;28;20104;-74
2022/06/26 00:40:10;;;;;;;2.90;2.60;;;17.30;99.90;;;;;;5070974;28;20017;-73
2022/06/26 00:42:36;;;;;;;5.20;2.53;;;17.30;99.90;;;;;;5070647;28;20067;-74
2022/06/26 00:45:03;;;;;;;3.92;2.47;;;17.00;99.90;;;;;;5071245;28;20021;-74
2022/06/26 00:47:31;;;;;;;4.30;2.65;;;16.90;99.90;;;;;;5070994;28;20134;-74
2022/06/26 00:49:57;;;;;;;3.47;2.60;;;17.00;99.90;;;;;;5053077;28;20028;-74
2022/06/26 00:52:23;;;;;;;5.10;2.80;;;17.20;99.90;;;;;;5065990;28;20048;-74
2022/06/26 00:54:50;;;;;;;5.82;2.70;;;17.20;99.90;;;;;;5051019;28;20029;-74
2022/06/26 00:57:16;;;;;;;3.05;2.70;;;17.10;99.90;;;;;;5051015;28;20032;-71
2022/06/26 00:59:42;;;;;;;3.65;2.75;;;17.10;99.90;;;;;;5050999;28;20044;-72
2022/06/26 01:02:08;;;;;;;10.20;8.35;;;17.00;99.90;;;;;;5031772;28;20470;-72
2022/06/26 01:04:34;;;;;;;6.20;3.50;;;17.10;99.90;;;;;;5073304;28;20055;-72
2022/06/26 01:07:00;;;;;;;4.35;3.10;;;17.10;99.90;;;;;;5056776;28;20048;-72
2022/06/26 01:09:26;;;;;;;3.65;2.90;;;17.20;99.90;;;;;;5062722;28;20025;-72
2022/06/26 01:11:53;;;;;;;3.42;2.60;;;17.20;99.90;;;;;;5072548;28;20044;-72
2022/06/26 01:14:19;;;;;;;3.33;2.72;;;17.20;99.90;;;;;;5074681;28;20432;-73
2022/06/26 01:16:46;;;;;;;3.83;2.42;;;17.10;99.90;;;;;;5068742;28;20025;-74
2022/06/26 01:19:15;;;;;;;4.25;2.40;;;17.20;99.90;;;;;;5054460;28;20021;-74
2022/06/26 01:21:40;;;;;;;4.55;2.60;;;17.20;99.90;;;;;;5059853;28;20142;-74
2022/06/26 01:24:06;;;;;;;5.53;2.83;;;17.20;99.90;;;;;;5043699;28;20108;-74
2022/06/26 01:26:32;;;;;;;3.17;2.42;;;17.10;99.90;;;;;;5067703;28;20025;-74
2022/06/26 01:28:58;;;;;;;3.15;2.58;;;17.20;99.90;;;;;;5054333;28;20032;-74
2022/06/26 01:31:24;;;;;;;3.05;2.67;;;17.00;99.90;;;;;;5060109;28;20028;-75
2022/06/26 01:33:50;;;;;;;5.57;2.80;;;17.00;99.90;;;;;;5074136;28;20380;-74
2022/06/26 01:36:16;;;;;;;4.57;2.70;;;16.90;99.90;;;;;;5054738;28;20100;-74
2022/06/26 01:38:42;;;;;;;4.15;2.78;;;16.90;99.90;;;;;;5054130;28;20083;-74
2022/06/26 01:41:08;;;;;;;5.65;2.47;;;16.90;99.90;;;;;;5053595;28;20180;-74
2022/06/26 01:43:36;;;;;;;5.78;2.40;;;16.90;99.90;;;;;;5066894;28;20093;-74
2022/06/26 01:46:02;;;;;;;3.13;2.30;;;16.90;99.90;;;;;;5054044;28;20023;-73
2022/06/26 01:48:29;;;;;;;3.78;2.47;;;17.00;99.90;;;;;;5053933;28;20096;-73
2022/06/26 01:50:56;;;;;;;3.72;2.55;;;17.10;99.90;;;;;;5035332;28;20029;-72
2022/06/26 01:53:23;;;;;;;3.83;2.70;;;17.10;99.90;;;;;;5053785;28;20025;-72
2022/06/26 01:55:48;;;;;;;4.53;3.05;;;16.90;99.90;;;;;;5053591;28;20029;-74
2022/06/26 01:58:14;;;;;;;4.97;2.95;;;16.80;99.90;;;;;;5053675;28;20029;-74
2022/06/26 02:00:42;;;;;;;3.38;2.90;;;16.80;99.90;;;;;;5052988;28;20025;-74
2022/06/26 02:03:09;;;;;;;4.15;2.90;;;16.50;99.90;;;;;;5045601;28;20048;-74
2022/06/26 02:05:35;;;;;;;9.60;3.42;;;16.20;99.90;;;;;;5053600;28;20032;-74
2022/06/26 02:08:02;;;;;;;3.08;2.83;;;16.00;99.90;;;;;;5035620;28;20029;-73
2022/06/26 02:15:59;;;;;;;4.82;3.10;;;16.40;99.90;;;;;;5055021;28;20059;-73
2022/06/26 02:18:25;;;;;;;11.20;3.42;;;16.40;99.90;;;;;;5057098;28;20079;-73
2022/06/26 02:20:51;;;;;;;9.57;3.45;;;16.40;99.90;;;;;;5065526;28;20021;-73
2022/06/26 02:23:17;;;;;;;7.28;2.97;;;16.50;99.90;;;;;;5073156;28;20106;-74
2022/06/26 02:25:43;;;;;;;9.40;3.13;;;16.50;99.90;;;;;;5073333;28;20051;-74
2022/06/26 02:28:09;;;;;;;8.10;3.10;;;16.50;99.90;;;;;;5068345;28;20103;-73
2022/06/26 02:30:34;;;;;;;7.03;2.90;;;16.50;99.90;;;;;;5052604;28;20032;-74
2022/06/26 02:33:00;;;;;;;9.93;3.17;;;16.50;99.90;;;;;;5034975;28;20059;-74
2022/06/26 02:35:26;;;;;;;8.68;3.22;;;16.50;99.90;;;;;;5053133;28;20031;-74
2022/06/26 02:37:56;;;;;;;5.72;2.60;;;16.50;99.90;;;;;;5070881;28;20039;-74
2022/06/26 02:40:23;;;;;;;4.30;2.85;;;16.70;99.90;;;;;;5060453;28;20024;-74
2022/06/26 02:42:50;;;;;;;3.88;2.85;;;16.80;99.90;;;;;;5043367;28;20068;-73
2022/06/26 02:45:15;;;;;;;4.00;2.92;;;16.80;99.90;;;;;;5056988;28;20032;-73
2022/06/26 02:47:41;;;;;;;3.60;2.67;;;17.00;99.90;;;;;;5050141;28;20025;-73
2022/06/26 02:50:08;;;;;;;3.10;2.83;;;17.00;99.90;;;;;;5064534;28;20039;-73
2022/06/26 02:52:35;;;;;;;3.80;3.00;;;17.00;99.90;;;;;;5058646;28;20044;-73
2022/06/26 02:55:01;;;;;;;3.50;3.17;;;17.00;99.90;;;;;;5060855;28;20061;-72
2022/06/26 02:57:27;;;;;;;3.30;2.90;;;17.00;99.90;;;;;;5046203;28;20107;-73
2022/06/26 02:59:53;;;;;;;3.30;3.10;;;16.90;99.90;;;;;;5041398;28;20471;-73
2022/06/26 03:02:19;;;;;;;3.40;3.10;;;16.50;99.90;;;;;;5065240;28;20021;-74
2022/06/26 03:04:45;;;;;;;4.75;3.20;;;16.30;99.90;;;;;;5052807;28;20100;-74
2022/06/26 03:07:10;;;;;;;4.00;3.40;;;16.30;99.90;;;;;;5065594;28;20025;-74
2022/06/26 03:09:36;;;;;;;6.53;3.40;;;16.10;99.90;;;;;;5065933;28;20031;-75
2022/06/26 03:12:02;;;;;;;6.30;2.97;;;16.10;99.90;;;;;;5040660;28;20029;-73
2022/06/26 03:14:28;;;;;;;4.07;3.05;;;16.10;99.90;;;;;;5058991;28;20657;-73
2022/06/26 03:16:53;;;;;;;3.08;2.78;;;16.40;99.90;;;;;;5047814;28;20040;-73
2022/06/26 03:19:19;;;;;;;3.55;3.03;;;16.40;99.90;;;;;;5065452;28;20036;-73
2022/06/26 03:21:45;;;;;;;3.35;3.05;;;16.50;99.90;;;;;;5051716;28;20032;-73
2022/06/26 03:24:11;;;;;;;3.60;3.30;;;16.30;99.90;;;;;;5052150;28;20394;-72
2022/06/26 03:26:38;;;;;;;4.65;2.90;;;16.30;99.90;;;;;;5058422;28;20074;-74
2022/06/26 03:29:08;;;;;;;8.48;3.30;;;16.00;99.90;;;;;;5058073;28;20040;-73
2022/06/26 03:31:34;;;;;;;3.30;3.00;;;16.10;99.90;;;;;;5058820;28;20024;-72
2022/06/26 03:34:00;;;;;;;3.40;2.85;;;16.40;99.90;;;;;;5058489;28;20051;-73
2022/06/26 03:36:27;;;;;;;3.13;2.85;;;16.10;99.90;;;;;;5064889;28;20044;-73
2022/06/26 03:38:54;;;;;;;4.88;2.83;;;16.30;99.90;;;;;;5065190;28;20028;-74
2022/06/26 03:41:20;;;;;;;7.95;3.30;;;16.20;99.90;;;;;;5040970;28;20028;-74
2022/06/26 03:43:46;;;;;;;5.15;3.28;;;16.40;99.90;;;;;;5040534;28;20526;-75
2022/06/26 03:46:11;;;;;;;4.07;3.20;;;16.50;99.90;;;;;;5064573;28;20060;-74
2022/06/26 03:48:37;;;;;;;6.72;3.20;;;16.50;99.90;;;;;;5065999;28;20028;-74
2022/06/26 03:51:04;;;;;;;6.78;3.10;;;16.40;99.90;;;;;;5063905;28;20507;-72
2022/06/26 03:53:32;;;;;;;5.85;3.20;;;15.90;99.90;;;;;;5065009;28;20067;-73
2022/06/26 03:55:58;;;;;;;5.63;3.20;;;16.10;99.90;;;;;;5051706;28;20035;-72
2022/06/26 03:58:24;;;;;;;5.75;3.30;;;16.50;99.90;;;;;;5047081;28;20028;-72
2022/06/26 04:00:49;;;;;;;6.70;3.53;;;16.70;99.90;;;;;;5058668;28;20394;-74
2022/06/26 04:03:15;;;;;;;6.68;4.00;;;16.80;99.90;;;;;;5057365;28;20025;-74
2022/06/26 04:05:41;;;;;;;8.18;4.10;;;16.70;99.90;;;;;;5051682;28;20067;-74
2022/06/26 04:08:07;;;;;;;10.88;5.03;;;16.60;99.90;;;;;;5064909;28;20086;-73
2022/06/26 04:10:33;;;;;;;7.53;5.80;;;16.80;99.90;;;;;;5058671;28;20039;-75
2022/06/26 04:13:00;;;;;;;8.80;5.72;;;16.90;99.90;;;;;;5040096;28;20119;-75
2022/06/26 04:15:28;;;;;;;6.60;5.00;;;17.00;99.90;;;;;;5063966;28;20037;-74
2022/06/26 04:17:54;;;;;;;6.90;4.70;;;16.90;99.90;;;;;;5064965;28;20071;-76
2022/06/26 04:20:20;;;;;;;4.20;3.80;;;17.00;99.90;;;;;;5050738;28;20076;-73
2022/06/26 04:23:02;;;;;;;7.15;3.88;;;16.80;99.90;;;;;;5051301;28;20021;-73
2022/06/26 04:25:29;;;;;;;6.95;3.58;;;16.80;99.90;;;;;;5051479;28;20025;-73
2022/06/26 04:27:56;;;;;;;4.55;3.03;;;16.80;99.90;;;;;;5055134;28;20070;-74
2022/06/26 04:30:22;;;;;;;4.70;3.10;;;16.50;99.90;;;;;;5042201;28;20033;-74
2022/06/26 04:32:48;;;;;;;7.43;3.53;;;16.70;99.90;;;;;;5042719;28;20440;-73
2022/06/26 04:35:14;;;;;;;5.32;3.13;;;16.70;99.90;;;;;;5034329;28;20508;-73
2022/06/26 04:37:40;;;;;;;4.22;3.30;;;16.60;99.90;;;;;;5053863;28;20032;-73
2022/06/26 04:40:09;;;;;;;2.95;2.65;;;17.00;99.90;;;;;;5065193;28;20047;-73
2022/06/26 04:42:35;;;;;;;6.93;3.42;;;17.30;99.90;;;;;;5074495;28;20036;-73
2022/06/26 04:45:00;;;;;;;6.50;3.10;;;17.60;99.90;;;;;;5063935;28;20021;-73
2022/06/26 04:47:26;;;;;;;8.07;2.80;;;17.70;99.90;;;;;;5068613;28;20025;-73
2022/06/26 04:49:52;;;;;;;3.70;2.67;;;17.80;99.90;;;;;;5045211;28;20033;-73
2022/06/26 04:52:17;;;;;;;3.30;2.70;;;17.70;99.90;;;;;;5054171;28;20029;-73
2022/06/26 04:54:44;;;;;;;4.35;2.55;;;17.80;99.90;;;;;;5054971;28;20028;-73
2022/06/26 04:57:10;;;;;;;4.97;2.70;;;17.80;99.90;;;;;;5038529;28;20465;-73
2022/06/26 04:59:36;;;;;;;3.45;2.55;;;17.90;99.90;;;;;;5037095;28;20113;-73
2022/06/26 05:02:02;;;;;;;4.15;2.83;;;18.30;99.90;;;;;;5051837;28;20031;-74
2022/06/26 05:04:28;;;;;;;6.95;2.75;;;18.40;99.90;;;;;;5074792;28;20494;-73
2022/06/26 05:06:54;;;;;;;5.00;3.08;;;18.30;99.90;;;;;;5074634;28;20025;-74
2022/06/26 05:09:21;;;;;;;6.75;3.22;;;18.00;99.90;;;;;;5056796;28;20020;-73
2022/06/26 05:11:46;;;;;;;5.50;2.33;;;17.80;99.90;;;;;;5042650;28;20028;-72
2022/06/26 05:14:12;;;;;;;3.92;2.90;;;18.10;99.90;;;;;;5063761;28;20036;-72
2022/06/26 05:16:38;;;;;;;6.32;2.85;;;18.00;99.90;;;;;;5068023;28;20029;-73
2022/06/26 05:19:04;;;;;;;3.25;2.63;;;18.10;99.90;;;;;;5055318;28;20061;-73
2022/06/26 05:21:30;;;;;;;2.72;2.45;;;18.60;99.90;;;;;;5055587;28;20025;-74
2022/06/26 05:23:56;;;;;;;3.15;2.15;;;19.10;99.90;;;;;;5054549;28;20029;-73
2022/06/26 05:26:22;;;;;;;3.80;2.47;;;19.10;99.90;;;;;;5067970;28;20029;-72
2022/06/26 05:28:48;;;;;;;3.35;2.42;;;19.10;99.90;;;;;;5064928;28;20048;-73
2022/06/26 05:31:14;;;;;;;4.70;3.45;;;19.00;99.90;;;;;;5060247;28;20121;-74
2022/06/26 05:33:39;;;;;;;3.65;2.97;;;18.90;99.90;;;;;;5063706;28;20467;-73
2022/06/26 05:36:07;;;;;;;5.03;2.75;;;19.00;99.90;;;;;;5054103;28;20025;-71
2022/06/26 05:38:33;;;;;;;3.28;2.70;;;19.20;99.90;;;;;;5064752;28;20032;-74
2022/06/26 05:40:59;;;;;;;3.90;2.60;;;19.20;99.90;;;;;;5051542;28;20439;-74
2022/06/26 05:43:24;;;;;;;6.22;2.78;;;19.20;99.90;;;;;;5053890;28;20104;-74
2022/06/26 05:45:50;;;;;;;3.20;2.53;;;19.10;99.90;;;;;;5053944;28;20095;-74
2022/06/26 05:48:16;;;;;;;3.45;2.67;;;19.30;99.90;;;;;;5054042;28;20073;-74
2022/06/26 05:50:41;;;;;;;5.25;2.38;;;19.40;99.90;;;;;;5069523;28;20418;-74
2022/06/26 05:53:07;;;;;;;2.88;2.42;;;19.40;99.90;;;;;;5073845;28;20036;-74
2022/06/26 05:55:33;;;;;;;2.60;2.40;;;19.80;99.90;;;;;;5056901;28;20440;-79
2022/06/26 05:57:59;;;;;;;2.60;2.28;;;19.80;99.90;;;;;;5043289;28;20031;-74
2022/06/26 06:00:25;;;;;;;2.55;2.33;;;20.20;99.90;;;;;;5070690;28;20112;-70
2022/06/26 06:02:51;;;;;;;4.50;2.63;;;20.30;99.90;;;;;;5056648;28;20051;-70
2022/06/26 06:05:16;;;;;;;3.13;2.50;;;20.30;99.90;;;;;;5053496;28;20478;-70
2022/06/26 06:07:42;;;;;;;4.63;2.83;;;20.20;99.90;;;;;;5053579;28;20109;-70
2022/06/26 06:10:09;;;;;;;4.07;2.55;;;20.30;99.90;;;;;;5053436;28;20395;-70
2022/06/26 06:12:35;;;;;;;2.97;2.45;;;20.40;99.90;;;;;;5052979;28;20025;-71
2022/06/26 06:15:02;;;;;;;3.65;2.58;;;20.60;99.90;;;;;;5053483;28;20028;-70
2022/06/26 06:17:37;;;;;;;3.45;2.20;;;20.90;99.90;;;;;;5053292;28;20108;-70
2022/06/26 06:20:08;;;;;;;2.40;2.20;;;21.00;99.90;;;;;;5072642;28;20031;-70
2022/06/26 06:22:34;;;;;;;2.35;2.10;;;21.10;99.90;;;;;;5054751;28;20291;-70
2022/06/26 06:25:00;;;;;;;3.75;2.35;;;21.20;99.90;;;;;;5073175;28;20105;-70
2022/06/26 06:27:25;;;;;;;3.63;2.13;;;21.20;99.90;;;;;;5073228;28;20052;-70
2022/06/26 06:29:51;;;;;;;3.10;2.00;;;21.50;99.90;;;;;;5073168;28;20085;-70
2022/06/26 06:32:16;;;;;;;3.00;1.98;;;21.70;99.90;;;;;;5072286;28;20043;-70
2022/06/26 06:34:42;;;;;;;3.42;2.00;;;22.00;99.90;;;;;;5049054;28;20029;-70
2022/06/26 06:37:08;;;;;;;2.13;2.03;;;22.10;99.90;;;;;;5052993;28;20064;-70
2022/06/26 06:39:34;;;;;;;2.95;1.80;;;22.20;99.90;;;;;;5034938;28;20025;-70
2022/06/26 06:41:59;;;;;;;2.78;1.88;;;22.20;99.90;;;;;;5052263;28;20064;-70
2022/06/26 06:44:25;;;;;;;2.53;1.65;;;22.20;99.90;;;;;;5072118;28;20024;-71
2022/06/26 06:46:50;;;;;;;3.00;1.73;;;22.30;99.90;;;;;;5072879;28;20024;-70
2022/06/26 06:49:16;;;;;;;2.00;1.67;;;22.30;99.90;;;;;;5072696;28;20501;-70
2022/06/26 06:51:41;;;;;;;2.03;1.83;;;22.50;99.90;;;;;;5072113;28;20082;-70
2022/06/26 06:54:07;;;;;;;2.75;1.38;;;22.70;99.90;;;;;;5054467;28;20032;-70
2022/06/26 06:56:33;;;;;;;1.50;1.40;;;23.00;99.90;;;;;;5060106;28;20028;-71
2022/06/26 06:58:58;;;;;;;1.90;1.30;;;22.80;99.90;;;;;;5052535;28;20108;-70
2022/06/26 07:01:24;;;;;;;2.42;1.25;;;22.90;99.90;;;;;;5029067;28;20477;-71
2022/06/26 07:03:49;;;;;;;1.40;1.30;;;22.90;99.90;;;;;;5051799;28;20162;-70
2022/06/26 07:06:15;;;;;;;1.75;1.35;;;23.30;99.90;;;;;;5065239;28;20039;-70
2022/06/26 07:08:40;;;;;;;1.50;1.40;;;23.10;99.90;;;;;;5072271;28;20085;-70
2022/06/26 07:11:06;;;;;;;2.10;1.20;;;23.20;99.90;;;;;;5053815;28;20032;-70
2022/06/26 07:13:32;;;;;;;2.20;1.48;;;23.50;99.90;;;;;;5072151;28;20044;-70
2022/06/26 07:15:58;;;;;;;1.20;1.10;;;23.60;99.90;;;;;;5072344;28;20066;-70
2022/06/26 07:18:24;;;;;;;2.28;1.35;;;23.70;99.90;;;;;;5065992;28;20035;-70
2022/06/26 07:20:50;;;;;;;1.73;1.20;;;23.90;99.90;;;;;;5051580;28;20023;-71
2022/06/26 07:23:16;;;;;;;1.52;1.17;;;24.00;99.90;;;;;;5051941;28;20493;-71
2022/06/26 07:25:42;;;;;;;1.63;1.30;;;23.90;99.90;;;;;;5064701;28;20032;-71
2022/06/26 07:28:08;;;;;;;1.80;0.90;;;24.10;99.90;;;;;;5072008;28;20029;-71
2022/06/26 07:30:34;;;;;;;3.15;1.30;;;24.20;99.90;;;;;;5071324;28;20020;-70
2022/06/26 07:35:51;;;;;;;1.75;0.93;;;24.40;99.90;;;;;;5069282;28;20051;-71
2022/06/26 07:38:17;;;;;;;2.53;1.10;;;24.30;99.90;;;;;;5051839;28;20044;-70
2022/06/26 07:40:42;;;;;;;1.20;1.10;;;24.30;99.90;;;;;;5051162;28;20630;-70
2022/06/26 07:43:08;;;;;;;2.15;1.10;;;24.50;99.90;;;;;;5051763;28;20494;-71
2022/06/26 07:45:33;;;;;;;1.30;1.20;;;24.50;99.90;;;;;;5051698;28;20113;-70
2022/06/26 07:47:59;;;;;;;1.33;1.17;;;24.40;99.90;;;;;;5052007;28;20049;-70
2022/06/26 07:50:24;;;;;;;1.52;1.35;;;24.40;99.90;;;;;;5050920;28;20025;-70
2022/06/26 07:52:50;;;;;;;2.30;1.27;;;24.60;99.90;;;;;;5051592;28;20029;-71
2022/06/26 07:55:16;;;;;;;2.05;1.10;;;24.60;99.90;;;;;;5051584;28;20060;-70
2022/06/26 07:57:42;;;;;;;1.00;0.95;;;24.80;99.90;;;;;;5051606;28;20040;-71
2022/06/26 08:00:08;;;;;;;1.10;1.00;;;24.80;99.90;;;;;;5051496;28;20095;-70
2022/06/26 08:02:34;;;;;;;1.40;1.00;;;24.60;99.90;;;;;;5053906;28;20097;-71
2022/06/26 08:04:59;;;;;;;0.90;0.77;;;24.90;99.90;;;;;;5071492;28;20083;-71
2022/06/26 08:07:25;;;;;;;1.77;1.00;;;25.00;99.90;;;;;;5062820;28;20029;-71
2022/06/26 08:09:50;;;;;;;2.63;1.67;;;25.20;99.90;;;;;;5051472;28;20021;-71
2022/06/26 08:12:16;;;;;;;1.23;1.10;;;25.40;99.90;;;;;;5050839;28;20021;-72
2022/06/26 08:14:42;;;;;;;1.17;1.08;;;25.20;99.90;;;;;;5066105;28;20029;-71
2022/06/26 08:17:08;;;;;;;0.80;0.80;;;24.90;99.90;;;;;;5071230;28;20486;-72
2022/06/26 08:19:33;;;;;;;1.20;1.10;;;25.20;99.90;;;;;;5071286;28;20025;-72
2022/06/26 08:22:02;;;;;;;1.25;0.90;;;25.20;99.90;;;;;;5070695;28;20024;-71
2022/06/26 08:24:29;;;;;;;2.00;0.90;;;25.60;99.90;;;;;;5071269;28;20032;-71
2022/06/26 08:26:54;;;;;;;2.22;1.10;;;25.90;99.90;;;;;;5071433;28;20086;-71
2022/06/26 08:29:20;;;;;;;1.35;1.25;;;26.00;99.90;;;;;;5053437;28;20489;-72
2022/06/26 08:31:46;;;;;;;1.02;0.93;;;26.00;99.90;;;;;;5070662;28;20040;-71
2022/06/26 08:34:11;;;;;;;1.73;1.15;;;26.00;99.90;;;;;;5053465;28;20539;-71
2022/06/26 08:36:38;;;;;;;2.50;1.05;;;26.00;99.90;;;;;;5071229;28;20051;-71
2022/06/26 08:39:08;;;;;;;1.23;0.95;;;26.00;99.90;;;;;;5071212;28;20024;-71
2022/06/26 08:41:43;;;;;;;3.45;1.00;;;26.20;99.90;;;;;;5070636;28;20024;-71
2022/06/26 08:44:09;;;;;;;1.70;1.08;;;25.90;99.90;;;;;;5053281;28;20017;-71
2022/06/26 08:46:37;;;;;;;1.10;1.00;;;25.80;99.90;;;;;;5071420;28;20401;-71
2022/06/26 08:49:10;;;;;;;1.20;1.10;;;26.00;99.90;;;;;;5071146;28;20052;-71
2022/06/26 08:51:40;;;;;;;1.42;1.10;;;26.40;99.90;;;;;;5070550;28;20498;-71
2022/06/26 08:54:06;;;;;;;1.10;1.00;;;26.40;99.90;;;;;;5071030;28;20028;-71
2022/06/26 08:56:33;;;;;;;3.15;1.20;;;26.50;99.90;;;;;;5058671;28;20028;-71
2022/06/26 08:58:59;;;;;;;1.35;1.10;;;26.30;99.90;;;;;;5033042;28;20025;-71
2022/06/26 09:01:25;;;;;;;2.08;1.10;;;26.30;99.90;;;;;;5045306;28;20026;-71
2022/06/26 09:03:51;;;;;;;1.40;1.30;;;26.40;99.90;;;;;;5049810;28;20071;-71
2022/06/26 09:06:17;;;;;;;1.35;1.25;;;26.30;99.90;;;;;;5051009;28;20032;-71
2022/06/26 09:08:44;;;;;;;2.15;1.20;;;26.10;99.90;;;;;;5050918;28;20036;-71
2022/06/26 09:11:10;;;;;;;2.17;1.20;;;26.40;99.90;;;;;;5050281;28;20102;-71
2022/06/26 09:13:40;;;;;;;1.10;1.00;;;26.20;99.90;;;;;;5050673;28;20048;-71
2022/06/26 09:16:06;;;;;;;1.27;1.17;;;26.50;99.90;;;;;;5050917;28;20029;-71
2022/06/26 09:18:40;;;;;;;2.65;1.40;;;26.80;99.90;;;;;;5050497;28;20170;-71
2022/06/26 09:21:07;;;;;;;1.60;1.40;;;26.60;99.90;;;;;;5051003;28;20032;-71
2022/06/26 09:23:34;;;;;;;1.42;1.30;;;26.60;99.90;;;;;;5049337;28;20025;-70
2022/06/26 09:26:00;;;;;;;3.42;1.20;;;26.70;99.90;;;;;;5039770;28;20021;-71
2022/06/26 09:28:26;;;;;;;1.30;1.05;;;27.00;99.90;;;;;;5050911;28;20412;-71
2022/06/26 09:30:57;;;;;;;1.30;1.20;;;27.40;99.90;;;;;;5036310;28;20131;-71
2022/06/26 09:33:29;;;;;;;2.13;1.08;;;27.40;99.90;;;;;;5055573;28;20111;-71
2022/06/26 09:35:55;;;;;;;1.58;1.48;;;27.50;99.90;;;;;;5053540;28;20490;-71
2022/06/26 09:38:35;;;;;;;1.45;1.35;;;27.20;99.90;;;;;;5054085;28;20074;-71
2022/06/26 09:41:03;;;;;;;1.42;1.10;;;26.90;99.90;;;;;;5053383;28;20383;-71
2022/06/26 09:43:33;;;;;;;1.35;1.20;;;26.80;99.90;;;;;;5053928;28;20021;-71
2022/06/26 09:46:02;;;;;;;1.90;1.33;;;27.00;99.90;;;;;;5053905;28;20021;-71
2022/06/26 09:48:28;;;;;;;1.52;1.00;;;27.60;99.90;;;;;;5053883;28;20044;-71
2022/06/26 09:50:55;;;;;;;2.25;1.10;;;27.90;99.90;;;;;;5053065;28;20100;-71
2022/06/26 09:53:22;;;;;;;1.35;1.25;;;28.00;99.90;;;;;;5053465;28;20108;-71
2022/06/26 09:55:49;;;;;;;1.83;1.20;;;27.70;99.90;;;;;;5053678;28;20394;-71
2022/06/26 09:58:15;;;;;;;2.85;1.42;;;27.50;99.90;;;;;;5035793;28;20029;-71
2022/06/26 10:00:41;;;;;;;2.33;1.60;;;28.00;99.90;;;;;;5053015;28;20100;-71
2022/06/26 10:08:43;;;;;;;1.80;1.00;;;28.30;99.90;;;;;;5073704;28;20120;-71
2022/06/26 10:11:09;;;;;;;1.63;1.40;;;28.20;99.90;;;;;;5073010;28;20056;-71
2022/06/26 10:13:39;;;;;;;1.23;1.13;;;28.20;99.90;;;;;;5071126;28;20025;-71
2022/06/26 10:16:46;;;;;;;1.33;1.23;;;28.30;99.90;;;;;;5052311;28;20021;-71
2022/06/26 10:19:24;;;;;;;1.33;1.23;;;28.70;99.90;;;;;;5020804;28;20511;-72
2022/06/26 10:21:51;;;;;;;1.25;1.15;;;28.70;99.90;;;;;;5049195;28;20028;-71
2022/06/26 10:24:16;;;;;;;1.55;1.10;;;28.20;99.90;;;;;;5052841;28;20032;-71
2022/06/26 10:27:00;;;;;;;1.95;1.20;;;28.00;99.90;;;;;;5052534;28;20024;-71
2022/06/26 10:29:36;;;;;;;1.20;1.10;;;28.20;99.90;;;;;;5054008;28;20606;-71
2022/06/26 10:32:03;;;;;;;1.35;1.25;;;28.50;99.90;;;;;;5051135;28;20053;-71
2022/06/26 10:34:29;;;;;;;1.40;1.17;;;27.50;99.90;;;;;;5071223;28;20371;-71
2022/06/26 10:37:02;;;;;;;1.20;1.10;;;27.30;99.90;;;;;;5051023;28;20025;-71
2022/06/26 10:39:41;;;;;;;1.92;1.10;;;27.50;99.90;;;;;;5052490;28;20032;-71
2022/06/26 10:45:02;;;;;;;2.22;1.17;;;28.20;99.90;;;;;;5046846;28;20035;-71
2022/06/26 10:47:38;;;;;;;;;;;28.20;99.90;;;;;;5051314;28;20025;-71
2022/06/26 10:50:04;;;;;;;2.08;1.30;;;28.80;99.90;;;;;;5051592;28;19913;-71
2022/06/26 10:52:31;;;;;;;1.33;1.20;;;28.70;99.90;;;;;;5049390;28;20037;-71
2022/06/26 10:55:02;;;;;;;3.33;1.33;;;28.70;99.90;;;;;;5046583;28;20471;-71
2022/06/26 10:57:36;;;;;;;2.97;1.27;;;28.40;99.90;;;;;;5051943;28;20435;-71
2022/06/26 11:00:12;;;;;;;1.33;1.23;;;28.70;99.90;;;;;;5053824;28;20013;-72
2022/06/26 11:02:40;;;;;;;1.77;1.17;;;28.50;99.90;;;;;;5057160;28;20023;-71
2022/06/26 11:05:08;;;;;;;2.05;1.10;;;28.60;99.90;;;;;;5051340;28;20071;-71
2022/06/26 11:08:03;;;;;;;2.30;1.10;;;28.80;99.90;;;;;;5052508;28;20379;-71
2022/06/26 11:10:29;;;;;;;2.15;1.10;;;29.30;99.90;;;;;;5025244;28;20490;-71
2022/06/26 11:12:55;;;;;;;1.30;1.20;;;28.70;99.90;;;;;;5051427;28;20032;-71
2022/06/26 11:15:26;;;;;;;2.20;1.23;;;28.30;99.90;;;;;;5051910;28;20017;-71
2022/06/26 11:17:56;;;;;;;1.20;1.10;;;28.30;99.90;;;;;;5052161;28;20021;-70
2022/06/26 11:23:24;;;;;;;4.20;1.38;;;29.00;99.90;;;;;;5052387;28;20059;-71
2022/06/26 11:25:55;;;;;;;1.75;0.90;;;29.80;99.90;;;;;;5052168;28;20494;-70
2022/06/26 11:28:27;;;;;;;0.80;0.80;;;29.70;99.90;;;;;;5052253;28;20074;-71
2022/06/26 11:30:53;;;;;;;0.98;0.90;;;29.60;99.70;;;;;;5051362;28;20021;-71
2022/06/26 11:33:24;;;;;;;0.90;0.90;;;30.10;99.30;;;;;;5051779;28;20037;-71
2022/06/26 11:35:50;;;;;;;1.60;1.50;;;30.00;98.20;;;;;;5051868;28;20029;-71
2022/06/26 11:38:16;;;;;;;2.55;1.05;;;30.10;99.00;;;;;;5051841;28;20542;-71
2022/06/26 11:40:43;;;;;;;2.00;0.90;;;30.00;98.20;;;;;;5051272;28;20425;-71
2022/06/26 11:43:10;;;;;;;1.02;1.00;;;29.80;97.70;;;;;;5051758;28;20045;-71
2022/06/26 11:45:39;;;;;;;1.00;1.00;;;30.60;99.00;;;;;;5051776;28;20086;-71
2022/06/26 11:48:08;;;;;;;1.38;1.20;;;31.10;97.30;;;;;;5051011;28;20027;-71
2022/06/26 11:50:36;;;;;;;0.90;0.90;;;30.90;96.70;;;;;;5051015;28;20059;-71
2022/06/26 11:53:03;;;;;;;1.65;1.35;;;31.10;97.50;;;;;;5051746;28;20025;-71
2022/06/26 11:55:30;;;;;;;1.35;0.95;;;31.10;98.60;;;;;;5051594;28;20021;-71
2022/06/26 11:57:56;;;;;;;1.35;1.10;;;31.60;97.00;;;;;;5051541;28;20036;-71
2022/06/26 12:00:23;;;;;;;1.42;1.10;;;31.20;97.30;;;;;;5050902;28;20383;-71
2022/06/26 12:02:50;;;;;;;1.27;1.17;;;31.70;96.60;;;;;;5056112;28;20039;-71
2022/06/26 12:05:24;;;;;;;1.20;1.10;;;31.70;96.90;;;;;;5071546;28;20472;-71
2022/06/26 12:07:51;;;;;;;3.38;1.10;;;31.80;96.10;;;;;;5071560;28;20567;-71
2022/06/26 12:10:35;;;;;;;2.17;1.13;;;31.00;96.70;;;;;;5070812;28;20171;-70
2022/06/26 12:13:02;;;;;;;1.15;0.95;;;30.60;96.40;;;;;;5071398;28;20028;-71
2022/06/26 12:15:36;;;;;;;2.55;1.10;;;30.10;97.00;;;;;;5071558;28;20032;-71
2022/06/26 12:18:05;;;;;;;1.05;1.05;;;29.80;95.90;;;;;;5071422;28;20033;-71
2022/06/26 12:20:39;;;;;;;1.10;1.00;;;29.60;97.20;;;;;;5070792;28;20028;-71
2022/06/26 12:23:05;;;;;;;2.53;1.08;;;29.10;96.80;;;;;;5071364;28;20151;-71
2022/06/26 12:25:33;;;;;;;1.73;1.23;;;29.10;97.90;;;;;;5071216;28;20026;-71
2022/06/26 12:28:00;;;;;;;1.10;1.08;;;29.90;97.20;;;;;;5071343;28;20070;-71
2022/06/26 12:30:31;;;;;;;1.50;1.10;;;29.80;96.70;;;;;;5070718;28;20024;-71
2022/06/26 12:32:58;;;;;;;0.90;0.90;;;30.60;96.60;;;;;;5071133;28;20107;-71
2022/06/26 12:35:28;;;;;;;1.88;1.08;;;31.40;95.70;;;;;;5071354;28;20030;-71
2022/06/26 12:37:54;;;;;;;1.40;1.30;;;31.00;95.40;;;;;;5053014;28;20029;-71
2022/06/26 12:40:20;;;;;;;1.88;1.33;;;31.70;95.50;;;;;;5070512;28;20017;-71
2022/06/26 12:42:47;;;;;;;2.88;1.30;;;31.80;97.20;;;;;;5071160;28;20055;-71
2022/06/26 12:45:12;;;;;;;3.42;1.20;;;32.40;96.10;;;;;;5071217;28;20021;-71
2022/06/26 12:47:39;;;;;;;1.98;1.30;;;31.70;95.70;;;;;;5071116;28;20521;-71
2022/06/26 12:50:05;;;;;;;1.20;1.10;;;30.50;97.30;;;;;;5071154;28;20028;-71
2022/06/26 12:52:34;;;;;;;2.75;1.35;;;30.20;97.40;;;;;;5070237;28;20103;-71
2022/06/26 12:55:04;;;;;;;1.30;1.20;;;30.00;97.20;;;;;;5071006;28;20043;-71
2022/06/26 12:57:30;;;;;;;1.88;1.23;;;29.80;97.40;;;;;;5038058;28;20025;-71
2022/06/26 12:59:56;;;;;;;2.50;1.08;;;29.80;96.90;;;;;;5052350;28;20498;-71
2022/06/26 13:02:21;;;;;;;1.30;1.20;;;29.70;97.20;;;;;;5055974;28;20095;-71
2022/06/26 13:04:47;;;;;;;1.33;1.13;;;29.60;97.60;;;;;;5074710;28;20436;-71
2022/06/26 13:07:13;;;;;;;3.22;1.40;;;29.40;97.20;;;;;;5074705;28;20035;-71